Airfield :
LOGIN :

Register | Disclaimer

   EN    FR    IT 

 










Legend :    VFR   Marginal VFR   IFR   Intensive IFR   Very Intensive IFR
Visi :
Ceiling :
>= 8 km
>= 3000ft
5 to 8 km
1000 to 3000 ft
1500m to 5 km
500 to 1000 ft
800 to 1500m
200 to 500 ft
< 800m
< 200 ft
Symbols :   Thunderstorms  Fog  Heavy snow  Heavy precipitations  Wind > 20 kt
SIGMETs :     Misc.  Thunderstorms  Icing  Turbulence  Mountain Waves  Volcanic Ashes







- Airport Elevation : 200 ft


EBBL - Klein Brogel AB

CURRENT METAR :
  • 151455Z 19003KT 9999 FEW140 SCT260 24/10 Q1013 BLU BLU

EXPIRED METARs :
  • 151425Z 20005KT 9999 FEW140 SCT260 24/10 Q1013 BLU BLU
  • 151355Z 20008KT 9999 FEW120 SCT260 24/10 Q1013 BLU BLU
  • 151325Z 21006KT 9999 FEW120 SCT260 25/11 Q1012 BLU BLU
  • 151255Z 21005KT 9999 FEW120 SCT260 25/11 Q1012 BLU BLU
  • 151225Z 22006KT 9999 FEW120 SCT260 24/10 Q1012 BLU BLU

TAF TAF EBBL
Valid from the 15 at 13:00 until the 15 at 22:00 UTC


151141Z 1513/1522 20008KT 9999 FEW120
No reported NOTAMs for that airfield.



MET'MAP, your aeronautical weather chart ! - Copyright ORBIFLY December 2007 - Disclaimer

ORBIFLY MET'MAP TEAM :

Programming & Development : Alexandra Zaïnal
Concept & Development : Baudouin d'Aumeries
Co-Development & Prog : Marc-Olivier Méhu
Technical & hardware support : Manuel Goepfert

Contact : metmap@orbifly.com




SOURCES & CREDITS :

   NOAA